HS Precip Hour 72hr 28day Wind Wind Wind Vel Dir Time Batt Logger
Date 24hr 24hr Sig Gauge Precip Sum Sum Speed Dir Dir 3sec 3sec 3sec Volts Intrnl
Time Ta Ta Max Ta Min RH HS Qual Total mm Precip Precip kph deg Gust Gust Gust Temp
26-08-29 00:00 2.4 7.3 2.0 100 58.2 258 ~ ~ ~ ~ ~ ~ ~ ~ ~ ~ ~ ~
26-08-29 01:00 2.5 7.3 2.0 100 33.1 276 ~ ~ ~ ~ ~ ~ ~ ~ ~ ~ ~ ~
26-08-29 02:00 3.0 7.3 2.0 97 0.0 260 ~ ~ ~ ~ ~ ~ ~ ~ ~ ~ ~ ~
26-08-29 03:00 2.8 7.3 2.0 88 568.0 0 ~ ~ ~ ~ ~ ~ ~ ~ ~ ~ ~ ~
26-08-29 04:00 2.9 7.3 2.0 86 568.0 0 ~ ~ ~ ~ ~ ~ ~ ~ ~ ~ ~ ~
26-08-29 05:00 3.4 7.3 2.0 80 568.0 0 ~ ~ ~ ~ ~ ~ ~ ~ ~ ~ ~ ~
26-08-29 06:00 3.6 7.3 2.0 75 30.8 331 ~ ~ ~ ~ ~ ~ ~ ~ ~ ~ ~ ~
26-08-29 07:00 4.1 7.3 2.0 72 568.0 0 ~ ~ ~ ~ ~ ~ ~ ~ ~ ~ ~ ~
26-08-29 08:00 4.2 4.5 3.3 73 568.0 0 ~ ~ ~ ~ ~ ~ ~ ~ ~ ~ ~ ~
26-08-29 09:00 5.1 5.2 3.3 72 28.0 286 ~ ~ ~ ~ ~ ~ ~ ~ ~ ~ ~ ~
26-08-29 10:00 5.8 6.8 3.3 77 568.0 0 ~ ~ ~ ~ ~ ~ ~ ~ ~ ~ ~ ~
26-08-29 11:00 6.9 7.8 3.3 80 185.4 230 ~ ~ ~ ~ ~ ~ ~ ~ ~ ~ ~ ~
26-08-29 12:00 7.6 8.1 3.3 76 568.0 0 ~ ~ ~ ~ ~ ~ ~ ~ ~ ~ ~ ~
26-08-29 13:00 7.7 8.1 3.3 72 568.0 0 ~ ~ ~ ~ ~ ~ ~ ~ ~ ~ ~ ~
26-08-29 14:00 8.6 8.8 3.3 67 568.0 0 ~ ~ ~ ~ ~ ~ ~ ~ ~ ~ ~ ~
26-08-29 15:00 8.6 9.0 3.3 64 568.0 0 ~ ~ ~ ~ ~ ~ ~ ~ ~ ~ ~ ~
26-08-29 16:00 7.8 9.5 3.3 70 568.0 0 ~ ~ ~ ~ ~ ~ ~ ~ ~ ~ ~ ~
26-08-29 17:00 8.7 9.5 3.3 75 27.7 355 ~ ~ ~ ~ ~ ~ ~ ~ ~ ~ ~ ~
26-08-29 18:00 7.6 9.5 3.3 87 0.0 201 ~ ~ ~ ~ ~ ~ ~ ~ ~ ~ ~ ~
26-08-29 19:00 6.7 9.5 3.3 95 8.6 216 ~ ~ ~ ~ ~ ~ ~ ~ ~ ~ ~ ~
26-08-29 20:00 6.0 9.5 3.3 100 568.0 0 ~ ~ ~ ~ ~ ~ ~ ~ ~ ~ ~ ~
26-08-29 21:00 5.9 9.5 3.3 97 568.0 0 ~ ~ ~ ~ ~ ~ ~ ~ ~ ~ ~ ~
26-08-29 22:00 5.4 9.5 3.3 100 568.0 0 ~ ~ ~ ~ ~ ~ ~ ~ ~ ~ ~ ~
26-08-29 23:00 5.4 9.5 3.3 100 568.0 0 ~ ~ ~ ~ ~ ~ ~ ~ ~ ~ ~ ~
26-08-30 00:00 5.0 9.5 3.3 100 17.3 235 ~ ~ ~ ~ ~ ~ ~ ~ ~ ~ ~ ~
26-08-30 01:00 4.9 9.5 3.3 100 17.0 270 ~ ~ ~ ~ ~ ~ ~ ~ ~ ~ ~ ~
26-08-30 02:00 4.6 9.5 3.3 100 16.2 247 ~ ~ ~ ~ ~ ~ ~ ~ ~ ~ ~ ~
26-08-30 03:00 4.5 9.5 3.3 100 16.2 242 ~ ~ ~ ~ ~ ~ ~ ~ ~ ~ ~ ~
26-08-30 04:00 4.2 9.5 3.3 100 15.7 264 ~ ~ ~ ~ ~ ~ ~ ~ ~ ~ ~ ~
26-08-30 05:00 4.3 9.5 3.3 100 16.5 361 ~ ~ ~ ~ ~ ~ ~ ~ ~ ~ ~ ~
26-08-30 06:00 4.2 9.5 3.3 100 21.6 256 ~ ~ ~ ~ ~ ~ ~ ~ ~ ~ ~ ~
26-08-30 07:00 4.1 9.5 3.3 100 568.0 0 ~ ~ ~ ~ ~ ~ ~ ~ ~ ~ ~ ~
26-08-30 08:00 4.0 4.2 3.9 100 568.0 0 ~ ~ ~ ~ ~ ~ ~ ~ ~ ~ ~ ~
26-08-30 09:00 3.9 4.2 3.8 100 568.0 0 ~ ~ ~ ~ ~ ~ ~ ~ ~ ~ ~ ~
26-08-30 10:00 4.4 4.6 3.8 100 568.0 0 ~ ~ ~ ~ ~ ~ ~ ~ ~ ~ ~ ~
26-08-30 11:00 4.7 5.1 3.8 100 568.0 0 ~ ~ ~ ~ ~ ~ ~ ~ ~ ~ ~ ~
26-08-30 12:00 4.8 5.2 3.8 100 568.0 0 ~ ~ ~ ~ ~ ~ ~ ~ ~ ~ ~ ~
26-08-30 13:00 5.2 5.4 3.8 100 568.0 0 ~ ~ ~ ~ ~ ~ ~ ~ ~ ~ ~ ~
26-08-30 14:00 5.1 5.6 3.8 100 568.0 0 ~ ~ ~ ~ ~ ~ ~ ~ ~ ~ ~ ~
26-08-30 15:00 5.5 5.6 3.8 100 568.0 0 ~ ~ ~ ~ ~ ~ ~ ~ ~ ~ ~ ~
26-08-30 16:00 5.7 5.9 3.8 100 568.0 0 ~ ~ ~ ~ ~ ~ ~ ~ ~ ~ ~ ~
26-08-30 17:00 5.8 6.3 3.8 100 568.0 0 ~ ~ ~ ~ ~ ~ ~ ~ ~ ~ ~ ~
26-08-30 18:00 5.7 6.3 3.8 100 568.0 0 ~ ~ ~ ~ ~ ~ ~ ~ ~ ~ ~ ~
26-08-30 19:00 5.7 6.3 3.8 100 9.6 252 ~ ~ ~ ~ ~ ~ ~ ~ ~ ~ ~ ~
26-08-30 20:00 5.5 6.3 3.8 100 568.0 0 ~ ~ ~ ~ ~ ~ ~ ~ ~ ~ ~ ~
26-08-30 21:00 5.6 6.3 3.8 100 568.0 0 ~ ~ ~ ~ ~ ~ ~ ~ ~ ~ ~ ~
26-08-30 22:00 5.5 6.3 3.8 100 568.0 0 ~ ~ ~ ~ ~ ~ ~ ~ ~ ~ ~ ~
26-08-30 23:00 5.5 6.3 3.8 100 568.0 0 ~ ~ ~ ~ ~ ~ ~ ~ ~ ~ ~ ~
26-08-31 00:00 5.2 6.3 3.8 100 568.0 0 ~ ~ ~ ~ ~ ~ ~ ~ ~ ~ ~ ~
26-08-31 01:00 5.2 6.3 3.8 100 568.0 0 ~ ~ ~ ~ ~ ~ ~ ~ ~ ~ ~ ~
26-08-31 02:00 5.1 6.3 3.8 100 568.0 0 ~ ~ ~ ~ ~ ~ ~ ~ ~ ~ ~ ~
26-08-31 03:00 4.9 6.3 3.8 100 0.0 324 ~ ~ ~ ~ ~ ~ ~ ~ ~ ~ ~ ~
26-08-31 04:00 4.9 6.3 3.8 100 0.0 296 ~ ~ ~ ~ ~ ~ ~ ~ ~ ~ ~ ~
26-08-31 05:00 4.9 6.3 3.8 100 568.0 0 ~ ~ ~ ~ ~ ~ ~ ~ ~ ~ ~ ~
26-08-31 06:00 4.8 6.3 3.8 100 568.0 0 ~ ~ ~ ~ ~ ~ ~ ~ ~ ~ ~ ~
26-08-31 07:00 5.0 6.3 3.8 100 6.3 239 ~ ~ ~ ~ ~ ~ ~ ~ ~ ~ ~ ~
26-08-31 08:00 5.1 5.1 4.6 100 568.0 0 ~ ~ ~ ~ ~ ~ ~ ~ ~ ~ ~ ~
26-08-31 09:00 5.7 5.7 4.6 100 568.0 0 ~ ~ ~ ~ ~ ~ ~ ~ ~ ~ ~ ~
26-08-31 10:00 7.7 7.7 4.6 100 0.0 209 ~ ~ ~ ~ ~ ~ ~ ~ ~ ~ ~ ~
26-08-31 11:00 8.4 8.7 4.6 100 0.0 281 ~ ~ ~ ~ ~ ~ ~ ~ ~ ~ ~ ~
26-08-31 12:00 9.2 9.4 4.6 100 568.0 0 ~ ~ ~ ~ ~ ~ ~ ~ ~ ~ ~ ~
26-08-31 13:00 10.0 10.2 4.6 81 568.0 0 ~ ~ ~ ~ ~ ~ ~ ~ ~ ~ ~ ~
26-08-31 14:00 11.1 11.1 4.6 74 172.0 250 ~ ~ ~ ~ ~ ~ ~ ~ ~ ~ ~ ~
26-08-31 15:00 11.7 12.0 4.6 72 237.6 272 ~ ~ ~ ~ ~ ~ ~ ~ ~ ~ ~ ~
26-08-31 16:00 11.5 12.2 4.6 75 568.0 0 ~ ~ ~ ~ ~ ~ ~ ~ ~ ~ ~ ~
26-08-31 17:00 11.0 12.2 4.6 69 0.0 228 ~ ~ ~ ~ ~ ~ ~ ~ ~ ~ ~ ~
26-08-31 18:00 10.6 12.2 4.6 72 27.8 324 ~ ~ ~ ~ ~ ~ ~ ~ ~ ~ ~ ~
26-08-31 19:00 11.0 12.2 4.6 76 0.0 206 ~ ~ ~ ~ ~ ~ ~ ~ ~ ~ ~ ~
26-08-31 20:00 9.9 12.2 4.6 83 568.0 0 ~ ~ ~ ~ ~ ~ ~ ~ ~ ~ ~ ~
26-08-31 21:00 9.3 12.2 4.6 84 568.0 0 ~ ~ ~ ~ ~ ~ ~ ~ ~ ~ ~ ~
26-08-31 22:00 9.5 12.2 4.6 84 15.2 256 ~ ~ ~ ~ ~ ~ ~ ~ ~ ~ ~ ~
26-08-31 23:00 9.9 12.2 4.6 78 568.0 0 ~ ~ ~ ~ ~ ~ ~ ~ ~ ~ ~ ~
26-09-01 00:00 9.7 12.2 4.6 76 0.0 252 ~ ~ ~ ~ ~ ~ ~ ~ ~ ~ ~ ~
26-09-01 01:00 9.6 12.2 4.6 75 0.0 208 ~ ~ ~ ~ ~ ~ ~ ~ ~ ~ ~ ~
26-09-01 02:00 9.8 12.2 4.6 66 22.9 240 ~ ~ ~ ~ ~ ~ ~ ~ ~ ~ ~ ~
26-09-01 03:00 9.5 12.2 4.6 63 568.0 0 ~ ~ ~ ~ ~ ~ ~ ~ ~ ~ ~ ~
26-09-01 04:00 9.1 12.2 4.6 62 22.3 227 ~ ~ ~ ~ ~ ~ ~ ~ ~ ~ ~ ~
26-09-01 05:00 8.8 12.2 4.6 64 23.9 274 ~ ~ ~ ~ ~ ~ ~ ~ ~ ~ ~ ~
26-09-01 06:00 8.3 12.2 4.6 82 568.0 0 ~ ~ ~ ~ ~ ~ ~ ~ ~ ~ ~ ~
26-09-01 07:00 8.2 12.2 4.6 80 25.6 308 ~ ~ ~ ~ ~ ~ ~ ~ ~ ~ ~ ~
26-09-01 08:00 8.3 8.6 7.9 84 568.0 0 ~ ~ ~ ~ ~ ~ ~ ~ ~ ~ ~ ~
26-09-01 09:00 9.3 9.3 7.9 87 568.0 0 ~ ~ ~ ~ ~ ~ ~ ~ ~ ~ ~ ~
26-09-01 10:00 9.9 10.0 7.9 83 21.0 340 ~ ~ ~ ~ ~ ~ ~ ~ ~ ~ ~ ~
26-09-01 11:00 10.2 10.5 7.9 81 568.0 0 ~ ~ ~ ~ ~ ~ ~ ~ ~ ~ ~ ~
26-09-01 12:00 10.3 10.5 7.9 79 0.0 199 ~ ~ ~ ~ ~ ~ ~ ~ ~ ~ ~ ~
26-09-01 13:00 11.1 11.3 7.9 80 0.0 224 ~ ~ ~ ~ ~ ~ ~ ~ ~ ~ ~ ~
26-09-01 14:00 11.7 11.7 7.9 73 568.0 0 ~ ~ ~ ~ ~ ~ ~ ~ ~ ~ ~ ~
26-09-01 15:00 10.8 12.6 7.9 77 29.0 313 ~ ~ ~ ~ ~ ~ ~ ~ ~ ~ ~ ~
26-09-01 16:00 10.1 12.6 7.9 83 0.0 194 ~ ~ ~ ~ ~ ~ ~ ~ ~ ~ ~ ~
26-09-01 17:00 9.1 12.6 7.9 85 568.0 0 ~ ~ ~ ~ ~ ~ ~ ~ ~ ~ ~ ~
26-09-01 18:00 8.0 12.6 7.9 93 568.0 0 ~ ~ ~ ~ ~ ~ ~ ~ ~ ~ ~ ~
26-09-01 19:00 8.3 12.6 7.9 78 0.0 320 ~ ~ ~ ~ ~ ~ ~ ~ ~ ~ ~ ~
26-09-01 20:00 7.6 12.6 7.5 93 568.0 0 ~ ~ ~ ~ ~ ~ ~ ~ ~ ~ ~ ~
26-09-01 21:00 7.1 12.6 7.1 100 5.3 232 ~ ~ ~ ~ ~ ~ ~ ~ ~ ~ ~ ~
26-09-01 22:00 6.9 12.6 6.8 100 10.3 295 ~ ~ ~ ~ ~ ~ ~ ~ ~ ~ ~ ~